Time;durP1;ratioP1;P1;durP2;ratioP2;P2;SDS_P1;SDS_P2;PMS_P1;PMS_P2;Temp;Humidity;BMP_temperature;BMP_pressure;BME280_temperature;BME280_humidity;BME280_pressure;Samples;Min_cycle;Max_cycle;Signal;HPM_P1;HPM_P2
2021/06/07 00:01:34;;;;;;;8.68;5.70;;;15.90;99.90;;;;;;4376934;32;20092;-69
2021/06/07 00:04:00;;;;;;;10.82;6.00;;;15.80;99.90;;;;;;4376717;32;20094;-69
2021/06/07 00:06:27;;;;;;;8.48;5.78;;;15.70;99.90;;;;;;4362612;32;20078;-71
2021/06/07 00:08:53;;;;;;;8.43;5.40;;;15.80;99.90;;;;;;4377223;32;20463;-70
2021/06/07 00:11:21;;;;;;;9.90;6.07;;;15.60;99.90;;;;;;4393308;32;20074;-69
2021/06/07 00:13:49;;;;;;;13.73;5.62;;;15.50;99.90;;;;;;4380107;32;20129;-70
2021/06/07 00:16:15;;;;;;;9.45;5.93;;;15.50;99.90;;;;;;4385944;32;20500;-69
2021/06/07 00:18:41;;;;;;;12.95;6.35;;;15.50;99.90;;;;;;4367397;32;20074;-69
2021/06/07 00:21:12;;;;;;;11.88;6.50;;;15.30;99.90;;;;;;4376308;32;20453;-68
2021/06/07 00:23:38;;;;;;;10.57;5.50;;;15.20;99.90;;;;;;4364932;32;20141;-71
2021/06/07 00:26:05;;;;;;;10.13;6.15;;;15.10;99.90;;;;;;4352545;32;20081;-70
2021/06/07 00:28:32;;;;;;;14.15;6.60;;;15.10;99.90;;;;;;4376288;32;20102;-70
2021/06/07 00:30:59;;;;;;;11.48;6.50;;;15.00;99.90;;;;;;4378877;32;20512;-68
2021/06/07 00:33:26;;;;;;;10.98;6.07;;;14.90;99.90;;;;;;4353497;32;20077;-69
2021/06/07 00:35:52;;;;;;;10.05;6.53;;;14.90;99.90;;;;;;4370807;32;20177;-68
2021/06/07 00:38:18;;;;;;;12.37;5.93;;;14.90;99.90;;;;;;4379636;32;20080;-69
2021/06/07 00:40:45;;;;;;;12.77;6.62;;;15.10;99.90;;;;;;4379639;32;20101;-68
2021/06/07 00:43:11;;;;;;;10.70;6.07;;;15.10;99.90;;;;;;4363652;32;20081;-67
2021/06/07 00:45:39;;;;;;;9.40;6.37;;;14.90;99.90;;;;;;4382284;32;20161;-70
2021/06/07 00:48:06;;;;;;;12.27;6.57;;;15.00;99.90;;;;;;4371341;32;20078;-71
2021/06/07 00:51:00;;;;;;;17.80;7.07;;;15.00;99.90;;;;;;4380188;32;20669;-69
2021/06/07 00:53:26;;;;;;;12.27;6.12;;;15.10;99.90;;;;;;4360533;32;20066;-68
2021/06/07 00:55:58;;;;;;;13.13;6.28;;;15.10;99.90;;;;;;4375806;32;20096;-68
2021/06/07 00:58:33;;;;;;;10.60;6.10;;;15.00;99.90;;;;;;4376416;32;20072;-70
2021/06/07 01:01:00;;;;;;;12.73;6.72;;;14.90;99.90;;;;;;4363112;32;20073;-69
2021/06/07 01:03:27;;;;;;;11.90;6.20;;;14.90;99.90;;;;;;4375989;32;20222;-69
2021/06/07 01:05:53;;;;;;;12.60;6.18;;;15.20;99.90;;;;;;4364220;32;20080;-68
2021/06/07 01:08:20;;;;;;;12.13;6.37;;;15.20;99.90;;;;;;4361225;32;20085;-69
2021/06/07 01:10:46;;;;;;;13.55;7.15;;;15.40;99.90;;;;;;4366375;32;20063;-70
2021/06/07 01:13:14;;;;;;;13.00;7.57;;;15.50;99.90;;;;;;4380758;32;20085;-67
2021/06/07 01:15:42;;;;;;;14.95;7.12;;;15.50;99.90;;;;;;4370722;32;20153;-70
2021/06/07 01:18:09;;;;;;;13.48;7.37;;;15.50;99.90;;;;;;4376480;32;20066;-68
2021/06/07 01:20:35;;;;;;;15.23;7.15;;;15.70;99.90;;;;;;4367727;32;20093;-69
2021/06/07 01:23:01;;;;;;;13.02;7.53;;;15.90;99.90;;;;;;4377376;32;20100;-68
2021/06/07 01:25:30;;;;;;;11.45;7.32;;;15.90;99.90;;;;;;4361974;32;20067;-69
2021/06/07 01:27:57;;;;;;;13.20;7.75;;;16.00;99.90;;;;;;4345628;32;20073;-69
2021/06/07 01:30:29;;;;;;;16.30;8.23;;;16.20;99.90;;;;;;4380783;32;20074;-69
2021/06/07 01:32:56;;;;;;;15.65;9.00;;;16.40;99.90;;;;;;4388432;32;20078;-69
2021/06/07 01:35:22;;;;;;;17.98;8.95;;;16.50;99.90;;;;;;4380288;32;20074;-69
2021/06/07 01:37:49;;;;;;;15.88;8.18;;;16.50;99.90;;;;;;4382429;32;20092;-69
2021/06/07 01:40:22;;;;;;;19.33;7.72;;;16.60;99.90;;;;;;4378124;32;20162;-68
2021/06/07 01:42:48;;;;;;;15.32;8.90;;;16.80;99.90;;;;;;4365260;32;20190;-67
2021/06/07 01:45:16;;;;;;;15.43;8.20;;;17.00;99.90;;;;;;4378430;32;20496;-67
2021/06/07 01:47:42;;;;;;;16.40;8.45;;;17.20;99.90;;;;;;4372724;32;20086;-68
2021/06/07 01:50:10;;;;;;;16.90;8.70;;;17.10;99.90;;;;;;4351041;32;20597;-68
2021/06/07 01:52:43;;;;;;;19.23;9.68;;;17.30;99.90;;;;;;4387254;32;20503;-68
2021/06/07 01:55:18;;;;;;;17.08;9.35;;;17.40;99.90;;;;;;4365166;32;20090;-70
2021/06/07 01:57:44;;;;;;;15.20;9.27;;;17.60;99.90;;;;;;4363853;32;20089;-69
2021/06/07 02:00:16;;;;;;;18.33;9.35;;;17.80;99.90;;;;;;4384169;32;20085;-70
2021/06/07 02:02:46;;;;;;;20.00;9.88;;;17.90;99.90;;;;;;4390699;32;20076;-69
2021/06/07 02:05:14;;;;;;;18.30;8.90;;;18.00;99.90;;;;;;4387402;32;20493;-69
2021/06/07 02:07:46;;;;;;;18.55;9.10;;;17.90;99.90;;;;;;4380860;32;20070;-69
2021/06/07 02:10:13;;;;;;;14.30;7.95;;;18.00;99.90;;;;;;4356854;32;20520;-69
2021/06/07 02:12:40;;;;;;;13.40;7.15;;;18.10;99.90;;;;;;4370575;32;20489;-69
2021/06/07 02:15:08;;;;;;;16.33;7.30;;;18.00;99.90;;;;;;4364684;32;20065;-69
2021/06/07 02:17:34;;;;;;;15.63;7.47;;;18.10;99.90;;;;;;4372911;32;20067;-69
2021/06/07 02:20:01;;;;;;;11.18;7.10;;;18.10;99.90;;;;;;4370397;32;20069;-70
2021/06/07 02:22:27;;;;;;;12.63;6.90;;;18.30;99.90;;;;;;4365176;32;20145;-70
2021/06/07 02:24:54;;;;;;;15.57;7.50;;;18.40;99.90;;;;;;4376742;32;20073;-68
2021/06/07 02:27:20;;;;;;;11.30;6.57;;;18.40;99.90;;;;;;4365033;32;20069;-70
2021/06/07 02:29:46;;;;;;;11.10;6.15;;;18.40;99.90;;;;;;4383708;32;20158;-69
2021/06/07 02:32:12;;;;;;;11.30;6.47;;;18.30;99.90;;;;;;4383809;32;20496;-69
2021/06/07 02:34:38;;;;;;;12.50;6.90;;;18.30;99.90;;;;;;4373185;32;20069;-68
2021/06/07 02:37:05;;;;;;;14.45;7.82;;;18.40;99.90;;;;;;4380999;32;20146;-68
2021/06/07 02:39:31;;;;;;;16.33;8.75;;;18.30;99.90;;;;;;4375061;32;20556;-69
2021/06/07 02:41:57;;;;;;;16.37;7.93;;;18.40;99.90;;;;;;4386941;32;20449;-69
2021/06/07 02:44:23;;;;;;;14.68;7.68;;;18.60;99.90;;;;;;4377183;32;20525;-68
2021/06/07 02:46:49;;;;;;;10.98;6.25;;;18.70;99.90;;;;;;4395414;32;20209;-69
2021/06/07 02:49:16;;;;;;;14.23;7.18;;;18.80;99.90;;;;;;4374480;32;20089;-69
2021/06/07 02:51:42;;;;;;;16.67;7.93;;;18.90;99.90;;;;;;4400096;32;20069;-69
2021/06/07 02:54:08;;;;;;;14.65;6.90;;;18.70;99.90;;;;;;4389692;32;20066;-69
2021/06/07 02:56:34;;;;;;;15.43;7.22;;;18.80;99.90;;;;;;4379142;32;20074;-70
2021/06/07 02:59:02;;;;;;;11.90;7.57;;;19.00;99.90;;;;;;4363474;32;20154;-68
2021/06/07 03:01:28;;;;;;;14.02;7.60;;;19.10;99.90;;;;;;4379501;32;20061;-70
2021/06/07 03:03:54;;;;;;;14.87;7.62;;;19.10;99.90;;;;;;4361936;32;20525;-69
2021/06/07 03:06:20;;;;;;;13.75;7.87;;;19.30;99.90;;;;;;4374336;32;20090;-69
2021/06/07 03:08:46;;;;;;;19.27;10.45;;;19.40;99.90;;;;;;4350260;32;20461;-69
2021/06/07 03:11:13;;;;;;;21.62;10.60;;;19.50;99.90;;;;;;4387258;32;20650;-70
2021/06/07 03:13:40;;;;;;;20.60;10.20;;;19.40;99.90;;;;;;4372360;32;20078;-68
2021/06/07 03:16:07;;;;;;;14.25;8.05;;;19.60;99.90;;;;;;4389641;32;20058;-70
2021/06/07 03:18:33;;;;;;;15.60;7.97;;;19.60;99.90;;;;;;4378551;32;20105;-69
2021/06/07 03:20:59;;;;;;;16.85;7.60;;;19.70;99.90;;;;;;4362119;32;20150;-70
2021/06/07 03:23:31;;;;;;;21.55;10.25;;;19.90;99.90;;;;;;4353928;32;20074;-69
2021/06/07 03:25:57;;;;;;;18.85;10.18;;;19.90;99.90;;;;;;4357329;32;20081;-70
2021/06/07 03:28:23;;;;;;;19.90;10.23;;;19.90;99.90;;;;;;4389085;32;20085;-68
2021/06/07 03:30:51;;;;;;;21.10;10.68;;;20.00;99.90;;;;;;4377079;32;20070;-69
2021/06/07 03:33:17;;;;;;;16.80;8.88;;;20.20;99.90;;;;;;4374516;32;20110;-69
2021/06/07 03:35:44;;;;;;;19.12;8.35;;;20.50;99.90;;;;;;4367840;32;20074;-69
2021/06/07 03:38:11;;;;;;;13.10;7.25;;;20.60;99.90;;;;;;4389628;32;20062;-69
2021/06/07 03:40:39;;;;;;;10.70;6.85;;;20.80;99.90;;;;;;4378228;32;20081;-70
2021/06/07 03:43:06;;;;;;;13.30;7.32;;;20.80;99.90;;;;;;4374240;32;20178;-70
2021/06/07 03:45:34;;;;;;;15.40;8.73;;;20.70;99.90;;;;;;4354099;32;20112;-70
2021/06/07 03:48:00;;;;;;;13.93;8.88;;;20.60;99.90;;;;;;4377408;32;20081;-70
2021/06/07 03:53:01;;;;;;;15.85;9.68;;;20.60;99.90;;;;;;3827066;37;20428;-69
2021/06/07 03:55:27;;;;;;;12.82;8.77;;;20.80;99.90;;;;;;4352004;32;20068;-70
2021/06/07 03:57:54;;;;;;;13.95;7.40;;;20.90;99.90;;;;;;4368089;32;20074;-70
2021/06/07 04:00:24;;;;;;;17.75;9.30;;;21.00;99.90;;;;;;4355326;32;20077;-70
2021/06/07 04:02:51;;;;;;;14.55;7.93;;;21.20;99.90;;;;;;4389689;32;20073;-71
2021/06/07 04:05:17;;;;;;;19.27;9.77;;;21.20;99.90;;;;;;4364299;32;20142;-72
2021/06/07 04:07:43;;;;;;;19.60;10.50;;;21.30;99.90;;;;;;4360919;32;20440;-70
2021/06/07 04:10:18;;;;;;;19.80;10.60;;;21.30;99.90;;;;;;4356933;32;20429;-71
2021/06/07 04:12:46;;;;;;;17.85;9.73;;;21.30;99.90;;;;;;4363374;32;20102;-69
2021/06/07 04:15:14;;;;;;;15.63;9.10;;;21.20;99.70;;;;;;4338257;32;20509;-69
2021/06/07 04:17:40;;;;;;;19.83;9.70;;;21.10;99.90;;;;;;4368772;32;20168;-67
2021/06/07 04:20:09;;;;;;;14.65;8.48;;;21.30;99.90;;;;;;4345139;32;20485;-70
2021/06/07 04:22:35;;;;;;;12.82;8.00;;;21.30;99.40;;;;;;4345633;32;20169;-69
2021/06/07 04:25:03;;;;;;;16.23;8.25;;;21.40;98.20;;;;;;4364346;32;20092;-68
2021/06/07 04:27:29;;;;;;;14.93;7.87;;;21.50;97.00;;;;;;4347817;32;20092;-70
2021/06/07 04:29:55;;;;;;;14.20;7.95;;;23.30;88.30;;;;;;4375542;32;20481;-70
2021/06/07 04:32:22;;;;;;;14.15;6.12;;;25.40;68.50;;;;;;4372406;32;20500;-70
2021/06/07 04:34:48;;;;;;;10.77;7.40;;;25.50;57.60;;;;;;4380193;32;20073;-69
2021/06/07 04:37:14;;;;;;;9.70;6.00;;;25.20;58.60;;;;;;4347872;32;20132;-69
2021/06/07 04:39:40;;;;;;;17.02;7.30;;;25.80;52.70;;;;;;4373834;32;20082;-70
2021/06/07 04:42:07;;;;;;;13.52;6.53;;;26.00;52.50;;;;;;4348163;32;20529;-69
2021/06/07 04:44:33;;;;;;;12.60;6.28;;;26.50;48.60;;;;;;4348667;32;20145;-69
2021/06/07 04:46:59;;;;;;;14.77;7.50;;;26.20;46.60;;;;;;4350013;32;20090;-69
2021/06/07 04:49:25;;;;;;;15.18;6.30;;;25.80;50.20;;;;;;4354276;32;20082;-69
2021/06/07 04:51:52;;;;;;;11.20;6.37;;;25.80;47.70;;;;;;4371798;32;20077;-69
2021/06/07 04:54:18;;;;;;;9.57;5.87;;;26.70;48.30;;;;;;4355530;32;20101;-70
2021/06/07 04:56:44;;;;;;;12.05;6.45;;;26.60;46.60;;;;;;4368505;32;20460;-70
2021/06/07 04:59:11;;;;;;;13.27;7.32;;;26.50;47.00;;;;;;4332586;32;20114;-70
2021/06/07 05:01:37;;;;;;;19.08;7.57;;;25.70;47.40;;;;;;4364145;32;20074;-70
2021/06/07 05:04:03;;;;;;;12.73;6.32;;;26.50;46.60;;;;;;4356278;32;20075;-70
2021/06/07 05:06:30;;;;;;;16.80;6.30;;;26.90;41.40;;;;;;4333574;32;20088;-71
2021/06/07 05:08:56;;;;;;;16.70;7.82;;;27.90;40.60;;;;;;4347896;32;20086;-70
2021/06/07 05:11:22;;;;;;;16.73;7.50;;;27.00;41.50;;;;;;4359520;32;20074;-70
2021/06/07 05:13:48;;;;;;;19.48;8.32;;;26.40;45.70;;;;;;4339842;32;20100;-68
2021/06/07 05:16:15;;;;;;;15.05;8.35;;;25.80;45.50;;;;;;4343363;32;20097;-70
2021/06/07 05:18:42;;;;;;;15.45;7.70;;;26.00;49.30;;;;;;4348688;32;20062;-69
2021/06/07 05:21:08;;;;;;;20.98;9.05;;;26.20;44.50;;;;;;4334998;32;20553;-69
2021/06/07 05:23:35;;;;;;;17.95;8.32;;;25.60;44.10;;;;;;4331822;32;20085;-69
2021/06/07 05:26:01;;;;;;;21.42;9.57;;;26.50;43.60;;;;;;4349276;32;20073;-69
2021/06/07 05:28:27;;;;;;;20.92;10.35;;;26.10;44.10;;;;;;4323663;33;20070;-69
2021/06/07 05:30:53;;;;;;;24.15;9.57;;;25.60;44.30;;;;;;4332174;32;20074;-69
2021/06/07 05:33:20;;;;;;;22.85;10.00;;;25.70;42.90;;;;;;4344521;32;20461;-69
2021/06/07 05:35:48;;;;;;;21.85;10.70;;;25.70;41.30;;;;;;4322521;32;20074;-68
2021/06/07 05:38:15;;;;;;;26.00;10.55;;;26.00;41.80;;;;;;4352936;32;20075;-69
2021/06/07 05:40:42;;;;;;;25.58;11.18;;;25.80;40.40;;;;;;4347503;32;20078;-70
2021/06/07 05:43:09;;;;;;;22.70;11.25;;;26.00;39.70;;;;;;4352804;32;20117;-70
2021/06/07 05:45:35;;;;;;;18.80;10.30;;;26.10;40.00;;;;;;4321282;33;20448;-69
2021/06/07 05:48:01;;;;;;;15.73;8.18;;;26.20;38.90;;;;;;4341504;32;20058;-69
2021/06/07 05:50:31;;;;;;;18.90;8.98;;;26.40;40.70;;;;;;4345933;32;20073;-68
2021/06/07 05:52:57;;;;;;;16.77;7.45;;;26.40;37.00;;;;;;4348574;32;20444;-71
2021/06/07 05:55:29;;;;;;;14.45;7.22;;;26.10;39.50;;;;;;4357736;32;20179;-69
2021/06/07 05:58:00;;;;;;;10.27;5.65;;;26.00;44.50;;;;;;4337022;32;20064;-69
2021/06/07 06:00:30;;;;;;;10.65;5.85;;;27.60;37.70;;;;;;4341498;32;20494;-70
2021/06/07 06:02:56;;;;;;;11.77;5.85;;;25.90;39.20;;;;;;4349765;32;20074;-70
2021/06/07 06:05:22;;;;;;;12.23;5.50;;;26.20;38.60;;;;;;4346234;33;20106;-69
2021/06/07 06:07:49;;;;;;;9.93;5.07;;;26.10;39.60;;;;;;4337909;33;20073;-69
2021/06/07 06:10:16;;;;;;;11.25;4.97;;;26.10;37.20;;;;;;4356920;32;20090;-69
2021/06/07 06:12:42;;;;;;;11.20;5.50;;;26.20;35.50;;;;;;4342507;32;20241;-71
2021/06/07 06:15:10;;;;;;;11.10;4.95;;;25.40;37.20;;;;;;4351048;32;20125;-68
2021/06/07 06:17:36;;;;;;;10.32;4.85;;;25.00;35.90;;;;;;4349662;32;20075;-71
2021/06/07 06:20:04;;;;;;;10.90;5.10;;;26.10;34.70;;;;;;4336963;32;20078;-70
2021/06/07 06:22:30;;;;;;;10.43;5.05;;;25.50;36.90;;;;;;4344554;33;20158;-68
2021/06/07 06:24:56;;;;;;;8.25;4.68;;;25.50;36.30;;;;;;4337971;32;20517;-68
2021/06/07 06:27:22;;;;;;;9.85;5.12;;;25.80;37.30;;;;;;4321026;32;20106;-68
2021/06/07 06:29:48;;;;;;;10.15;5.15;;;25.00;37.00;;;;;;4344242;32;20070;-71
2021/06/07 06:32:15;;;;;;;10.40;5.70;;;25.40;38.30;;;;;;4331038;32;20640;-70
2021/06/07 06:34:41;;;;;;;12.98;5.57;;;25.40;39.20;;;;;;4341521;32;20067;-70
2021/06/07 06:37:08;;;;;;;9.88;5.53;;;25.60;36.90;;;;;;4329152;32;20180;-70
2021/06/07 06:39:35;;;;;;;10.77;5.15;;;25.80;38.00;;;;;;4332440;32;20125;-71
2021/06/07 06:42:02;;;;;;;8.25;4.22;;;25.90;37.50;;;;;;4337427;32;20065;-66
2021/06/07 06:44:28;;;;;;;6.10;3.58;;;26.00;32.90;;;;;;4330372;32;20086;-70
2021/06/07 06:46:54;;;;;;;13.35;6.90;;;25.90;34.50;;;;;;4340039;32;20093;-69
2021/06/07 06:49:21;;;;;;;11.07;6.00;;;25.20;35.50;;;;;;4326452;33;20067;-69
2021/06/07 06:51:47;;;;;;;9.80;5.28;;;25.20;36.10;;;;;;4326236;33;20062;-70
2021/06/07 06:54:13;;;;;;;9.88;4.87;;;25.30;36.10;;;;;;4324322;32;20078;-67
2021/06/07 06:56:40;;;;;;;15.00;4.03;;;26.10;36.20;;;;;;4340418;32;20058;-69
2021/06/07 06:59:06;;;;;;;4.55;2.45;;;26.20;33.60;;;;;;4338593;32;20073;-68
2021/06/07 07:01:32;;;;;;;4.22;2.10;;;25.50;32.40;;;;;;4335979;33;20126;-68
2021/06/07 07:03:58;;;;;;;2.35;1.90;;;25.80;29.80;;;;;;4348462;32;20074;-67
2021/06/07 07:06:25;;;;;;;6.97;2.12;;;26.20;28.80;;;;;;4350776;32;20074;-66
2021/06/07 07:08:53;;;;;;;3.12;1.95;;;26.40;28.40;;;;;;4338793;32;20093;-67
2021/06/07 07:11:20;;;;;;;4.15;1.98;;;26.40;28.80;;;;;;4340734;33;20066;-71
2021/06/07 07:13:46;;;;;;;3.65;2.15;;;26.20;28.50;;;;;;4333074;32;20535;-65
2021/06/07 07:16:13;;;;;;;2.90;1.83;;;25.60;28.90;;;;;;4346307;32;20557;-66
2021/06/07 07:18:39;;;;;;;4.12;1.95;;;25.70;27.70;;;;;;4338886;32;20090;-66
2021/06/07 07:21:05;;;;;;;3.75;1.50;;;25.90;29.40;;;;;;4340867;32;20087;-68
2021/06/07 07:23:33;;;;;;;2.72;1.75;;;25.80;28.30;;;;;;4340054;33;20276;-69
2021/06/07 07:26:01;;;;;;;4.50;1.70;;;26.00;27.00;;;;;;4334527;33;20062;-65
2021/06/07 07:28:27;;;;;;;2.67;1.90;;;26.30;29.10;;;;;;4326615;32;20154;-71
2021/06/07 07:30:54;;;;;;;2.50;1.73;;;26.70;29.00;;;;;;4322707;32;20063;-67
2021/06/07 07:33:21;;;;;;;4.10;2.08;;;26.80;29.70;;;;;;4308783;32;20074;-68
2021/06/07 07:35:48;;;;;;;3.97;2.17;;;26.60;29.10;;;;;;4327690;33;20489;-71
2021/06/07 07:38:14;;;;;;;6.87;3.22;;;27.00;28.20;;;;;;4331911;33;20090;-72
2021/06/07 07:40:42;;;;;;;9.23;4.60;;;26.80;38.20;;;;;;4324652;33;20074;-66
2021/06/07 07:43:09;;;;;;;15.07;5.32;;;26.70;52.00;;;;;;4319035;32;20066;-69
2021/06/07 07:45:35;;;;;;;11.25;5.50;;;25.90;69.40;;;;;;4338433;33;20498;-68
2021/06/07 07:48:04;;;;;;;7.78;4.65;;;25.80;73.20;;;;;;4353063;32;20086;-68
2021/06/07 07:50:31;;;;;;;6.78;3.78;;;26.10;65.90;;;;;;4301292;32;20114;-68
2021/06/07 07:52:59;;;;;;;7.20;3.30;;;26.10;64.70;;;;;;4352529;32;20125;-71
2021/06/07 07:55:28;;;;;;;5.12;3.15;;;25.80;63.60;;;;;;4334713;32;20105;-76
2021/06/07 07:57:55;;;;;;;6.82;2.70;;;26.10;54.90;;;;;;4335823;32;20162;-75
2021/06/07 08:00:28;;;;;;;5.12;2.67;;;25.80;50.30;;;;;;4327857;32;20066;-77
2021/06/07 08:02:54;;;;;;;3.80;2.20;;;26.20;48.90;;;;;;4327263;32;20073;-73
2021/06/07 08:05:20;;;;;;;2.53;2.10;;;25.90;45.80;;;;;;4343687;33;20580;-71
2021/06/07 08:07:47;;;;;;;2.97;2.03;;;26.20;36.60;;;;;;4331537;32;20067;-76
2021/06/07 08:10:13;;;;;;;3.03;1.77;;;26.20;36.60;;;;;;4336768;33;20078;-75
2021/06/07 08:12:41;;;;;;;3.20;1.77;;;26.50;34.80;;;;;;4345757;32;20078;-75
2021/06/07 08:15:08;;;;;;;4.05;1.87;;;26.30;33.60;;;;;;4325053;33;20135;-76
2021/06/07 08:17:35;;;;;;;4.15;1.30;;;26.40;30.00;;;;;;4321629;33;20085;-74
2021/06/07 08:20:07;;;;;;;3.30;1.60;;;26.70;31.60;;;;;;4333593;33;20057;-73
2021/06/07 08:22:34;;;;;;;1.52;1.40;;;26.40;27.80;;;;;;4323937;32;20093;-75
2021/06/07 08:25:00;;;;;;;2.10;1.70;;;26.90;25.40;;;;;;4328617;32;20082;-76
2021/06/07 08:27:28;;;;;;;3.40;1.27;;;26.20;25.40;;;;;;4322344;32;20091;-79
2021/06/07 08:29:54;;;;;;;2.25;1.33;;;26.00;24.50;;;;;;4337619;32;20071;-77
2021/06/07 08:32:21;;;;;;;2.28;1.42;;;26.40;26.50;;;;;;4330771;32;20078;-77
2021/06/07 08:34:48;;;;;;;3.05;1.50;;;26.60;27.50;;;;;;4340531;32;20109;-72
2021/06/07 08:37:17;;;;;;;1.60;1.25;;;26.30;28.00;;;;;;4332884;32;20178;-79
2021/06/07 08:39:43;;;;;;;3.42;1.67;;;26.00;27.50;;;;;;4326677;32;20082;-77
2021/06/07 08:42:10;;;;;;;1.62;1.30;;;25.80;28.00;;;;;;4351648;32;20461;-77
2021/06/07 08:44:39;;;;;;;2.30;1.58;;;26.00;29.30;;;;;;4349070;32;20082;-74
2021/06/07 08:47:05;;;;;;;1.58;1.15;;;26.20;29.10;;;;;;4357298;32;20631;-78
2021/06/07 08:49:31;;;;;;;4.87;1.45;;;26.20;29.40;;;;;;4347381;32;20122;-75
2021/06/07 08:51:57;;;;;;;2.92;1.45;;;26.50;28.90;;;;;;4341346;33;20196;-75
2021/06/07 08:54:24;;;;;;;3.50;1.40;;;26.40;29.20;;;;;;4337294;32;20086;-76
2021/06/07 08:56:50;;;;;;;3.60;1.65;;;26.60;29.00;;;;;;4344069;33;20111;-78
2021/06/07 08:59:16;;;;;;;3.62;1.90;;;26.60;28.10;;;;;;4347518;32;20074;-78
2021/06/07 09:01:43;;;;;;;3.67;1.80;;;26.20;28.80;;;;;;4338949;33;20110;-78
2021/06/07 09:04:17;;;;;;;2.40;1.60;;;27.00;29.10;;;;;;4349281;32;20082;-76
2021/06/07 09:06:46;;;;;;;4.18;1.70;;;26.90;29.10;;;;;;4349514;32;20086;-78
2021/06/07 09:09:18;;;;;;;2.85;1.60;;;26.20;29.10;;;;;;4346503;33;20151;-77
2021/06/07 09:12:00;;;;;;;1.98;1.25;;;25.90;28.40;;;;;;4332875;33;20074;-77
2021/06/07 09:14:32;;;;;;;1.87;1.55;;;26.30;26.60;;;;;;4331547;32;20107;-77
2021/06/07 09:16:59;;;;;;;2.62;1.55;;;26.50;26.40;;;;;;4337739;32;20220;-75
2021/06/07 09:19:30;;;;;;;2.92;1.50;;;27.50;26.40;;;;;;4336630;33;20066;-76
2021/06/07 09:22:22;;;;;;;2.37;1.48;;;26.80;25.30;;;;;;4323894;33;20086;-73
2021/06/07 09:25:12;;;;;;;2.92;1.45;;;26.90;25.50;;;;;;4338297;32;20101;-68
2021/06/07 09:27:40;;;;;;;1.52;1.40;;;27.30;25.60;;;;;;4345072;32;20070;-72
2021/06/07 09:30:49;;;;;;;2.87;1.40;;;27.30;26.60;;;;;;4331852;32;20090;-74
2021/06/07 09:33:21;;;;;;;2.33;1.35;;;27.80;26.10;;;;;;4345893;32;20113;-73
2021/06/07 09:36:29;;;;;;;2.15;1.37;;;26.90;27.30;;;;;;4335267;32;20086;-74
2021/06/07 09:39:23;;;;;;;2.03;1.15;;;27.10;27.70;;;;;;4329549;32;20075;-76
2021/06/07 09:42:09;;;;;;;2.10;1.42;;;26.40;27.70;;;;;;4324815;32;20071;-75
2021/06/07 09:44:48;;;;;;;;;;;26.70;27.80;;;;;;4328250;32;20090;-74
2021/06/07 09:47:31;;;;;;;2.87;1.20;;;27.20;28.00;;;;;;4344471;32;19958;-69
2021/06/07 09:50:02;;;;;;;1.80;1.40;;;26.50;27.10;;;;;;4338043;32;20086;-72
2021/06/07 09:52:32;;;;;;;2.87;1.52;;;26.20;27.20;;;;;;4345485;33;20065;-72
2021/06/07 09:55:09;;;;;;;3.37;1.73;;;26.20;27.50;;;;;;4347633;32;20075;-71
2021/06/07 09:57:52;;;;;;;3.60;1.35;;;26.10;27.60;;;;;;4350753;32;20081;-71
2021/06/07 10:00:54;;;;;;;3.65;1.60;;;26.30;27.50;;;;;;4336541;32;20066;-72
2021/06/07 10:03:31;;;;;;;2.85;1.52;;;26.20;27.00;;;;;;4274981;33;20140;-73
2021/06/07 10:06:00;;;;;;;1.73;1.33;;;26.00;26.80;;;;;;4317223;32;20085;-75
2021/06/07 10:08:44;;;;;;;4.03;1.70;;;26.00;27.50;;;;;;4329514;32;20094;-73
2021/06/07 10:11:21;;;;;;;1.95;1.50;;;26.30;28.10;;;;;;4332500;32;20151;-75
2021/06/07 10:13:47;;;;;;;2.47;1.37;;;26.50;28.20;;;;;;4338736;32;20071;-74
2021/06/07 10:16:14;;;;;;;1.15;1.05;;;26.20;28.00;;;;;;4317932;32;20142;-71
2021/06/07 10:18:41;;;;;;;1.62;1.50;;;25.80;28.90;;;;;;4327764;32;20087;-73
2021/06/07 10:21:10;;;;;;;2.03;1.35;;;25.80;29.30;;;;;;4317658;32;20184;-76
2021/06/07 10:23:36;;;;;;;3.37;1.40;;;25.90;29.40;;;;;;4332805;32;20106;-77
2021/06/07 10:26:05;;;;;;;2.45;1.40;;;25.80;29.80;;;;;;4348292;32;20182;-74
2021/06/07 10:28:34;;;;;;;3.65;1.90;;;26.00;29.50;;;;;;4333458;32;20089;-74
2021/06/07 10:31:20;;;;;;;2.85;1.58;;;25.90;29.50;;;;;;4345089;32;20083;-76
2021/06/07 10:33:59;;;;;;;2.47;1.60;;;26.20;29.90;;;;;;4353628;32;20126;-74
2021/06/07 10:36:25;;;;;;;4.25;1.67;;;25.80;30.10;;;;;;4330827;32;20075;-72
2021/06/07 10:38:53;;;;;;;3.90;1.50;;;26.10;30.10;;;;;;4348047;32;20102;-71
2021/06/07 10:41:27;;;;;;;3.53;1.40;;;26.00;29.90;;;;;;4344886;32;20157;-72
2021/06/07 10:43:58;;;;;;;2.28;1.65;;;26.20;30.00;;;;;;4338434;32;20501;-76
2021/06/07 10:46:39;;;;;;;2.35;1.62;;;25.60;31.70;;;;;;4332109;32;20094;-70
2021/06/07 10:49:37;;;;;;;3.70;2.00;;;25.70;32.40;;;;;;4354268;32;20089;-71
2021/06/07 10:52:59;;;;;;;2.12;1.67;;;25.80;32.80;;;;;;3845289;37;20062;-72
2021/06/07 10:55:36;;;;;;;3.42;1.70;;;25.80;32.30;;;;;;4398885;32;20062;-73
2021/06/07 10:58:13;;;;;;;4.75;1.87;;;25.70;31.20;;;;;;4401922;32;20100;-70
2021/06/07 11:00:47;;;;;;;6.32;1.98;;;25.90;30.40;;;;;;4377126;32;20073;-63
2021/06/07 11:03:30;;;;;;;2.80;1.60;;;26.20;30.10;;;;;;4397073;32;20178;-73
2021/06/07 11:05:58;;;;;;;2.67;1.65;;;26.00;30.50;;;;;;4390071;32;20432;-73
2021/06/07 11:08:30;;;;;;;5.07;2.92;;;25.70;30.10;;;;;;4389349;32;20080;-74
2021/06/07 11:11:05;;;;;;;2.47;1.62;;;26.00;30.00;;;;;;4402214;32;20081;-74
2021/06/07 11:13:48;;;;;;;2.40;1.55;;;26.20;29.30;;;;;;4402922;32;20098;-74
2021/06/07 11:16:30;;;;;;;2.87;1.45;;;26.30;28.50;;;;;;4396067;32;20080;-72
2021/06/07 11:18:58;;;;;;;3.37;1.70;;;26.40;29.00;;;;;;4402561;32;20499;-75
2021/06/07 11:21:26;;;;;;;2.22;1.30;;;27.10;29.00;;;;;;4364727;32;20096;-71
2021/06/07 11:23:53;;;;;;;3.35;1.83;;;26.80;28.00;;;;;;4392752;32;20054;-69
2021/06/07 11:26:31;;;;;;;2.33;1.73;;;26.70;29.50;;;;;;4371734;32;20091;-69
2021/06/07 11:29:00;;;;;;;4.20;1.55;;;27.00;30.00;;;;;;4373958;32;20085;-75
2021/06/07 11:31:32;;;;;;;2.87;1.58;;;26.60;31.20;;;;;;4402297;32;20078;-71
2021/06/07 11:34:10;;;;;;;4.53;1.80;;;26.40;33.20;;;;;;4418700;32;20102;-74
2021/06/07 11:36:49;;;;;;;2.55;1.62;;;26.40;34.10;;;;;;4399013;32;20112;-72
2021/06/07 11:39:19;;;;;;;2.97;1.55;;;26.20;34.20;;;;;;4393827;32;20489;-71
2021/06/07 11:42:01;;;;;;;5.55;1.80;;;26.00;34.10;;;;;;4373796;32;20173;-74
2021/06/07 11:44:43;;;;;;;4.15;1.87;;;26.30;34.60;;;;;;4401969;32;20097;-73
2021/06/07 11:47:19;;;;;;;2.05;1.60;;;26.30;34.00;;;;;;4397527;32;20101;-72
2021/06/07 11:49:57;;;;;;;;;;;26.20;34.90;;;;;;4383999;32;20088;-67
2021/06/07 11:52:33;;;;;;;2.53;1.67;;;26.50;33.60;;;;;;4398277;32;19965;-67
2021/06/07 11:55:27;;;;;;;2.28;1.45;;;26.30;31.40;;;;;;4395881;32;20084;-70
2021/06/07 11:58:03;;;;;;;4.37;1.80;;;26.00;29.10;;;;;;4365630;32;20082;-75
2021/06/07 12:00:37;;;;;;;2.08;1.50;;;26.10;28.50;;;;;;4358103;32;20077;-73
2021/06/07 12:03:08;;;;;;;3.12;1.55;;;26.40;27.80;;;;;;4378039;32;20116;-71
2021/06/07 12:05:34;;;;;;;2.58;1.70;;;26.30;28.10;;;;;;4356977;32;20519;-78
2021/06/07 12:08:12;;;;;;;2.92;1.70;;;26.20;29.60;;;;;;4350501;32;20177;-75
2021/06/07 12:10:39;;;;;;;5.65;1.95;;;26.00;29.60;;;;;;4375493;32;20232;-73
2021/06/07 12:13:34;;;;;;;3.35;2.03;;;26.30;30.30;;;;;;4382627;32;20591;-65
2021/06/07 12:16:12;;;;;;;3.35;1.50;;;26.00;30.90;;;;;;4385228;32;20174;-69
2021/06/07 12:18:40;;;;;;;2.15;1.60;;;26.10;31.20;;;;;;4360864;32;20065;-68
2021/06/07 12:21:14;;;;;;;2.30;1.95;;;26.60;30.40;;;;;;4373410;32;20078;-69
2021/06/07 12:23:50;;;;;;;3.08;1.85;;;26.20;31.20;;;;;;4357270;32;20096;-69
2021/06/07 12:29:28;;;;;;;3.55;1.73;;;25.80;32.70;;;;;;4377044;32;19968;-70
2021/06/07 12:32:16;;;;;;;1.50;1.40;;;26.30;32.40;;;;;;4369210;32;20109;-68
2021/06/07 12:35:05;;;;;;;2.62;1.92;;;26.20;31.50;;;;;;4357324;32;20141;-75
2021/06/07 12:37:36;;;;;;;3.55;1.73;;;26.20;28.80;;;;;;4373051;32;20077;-74
2021/06/07 12:40:17;;;;;;;2.60;1.70;;;26.60;28.40;;;;;;4371952;32;20069;-75
2021/06/07 12:42:46;;;;;;;2.08;1.67;;;26.80;26.20;;;;;;4375802;32;20082;-73
2021/06/07 12:45:23;;;;;;;3.40;1.75;;;26.70;26.20;;;;;;4375704;32;20630;-73
2021/06/07 12:47:49;;;;;;;5.15;1.80;;;26.50;26.00;;;;;;4365768;32;20066;-73
2021/06/07 12:50:22;;;;;;;3.62;1.73;;;26.30;27.60;;;;;;4370104;32;20078;-75
2021/06/07 12:52:53;;;;;;;4.70;2.40;;;26.20;28.60;;;;;;4378582;32;20078;-75
2021/06/07 12:55:23;;;;;;;6.10;2.05;;;26.40;27.90;;;;;;4369514;32;20202;-74
2021/06/07 12:57:50;;;;;;;4.32;2.00;;;26.70;28.60;;;;;;4376098;32;20445;-76
2021/06/07 13:00:24;;;;;;;3.25;1.70;;;26.50;27.80;;;;;;4358962;32;20088;-76